Time;durP1;ratioP1;P1;durP2;ratioP2;P2;SDS_P1;SDS_P2;PMS_P1;PMS_P2;Temp;Humidity;BMP_temperature;BMP_pressure;BME280_temperature;BME280_humidity;BME280_pressure;Samples;Min_cycle;Max_cycle;Signal;HPM_P1;HPM_P2
2022/11/17 00:00:37;;;;;;;4.40;3.42;;;6.60;99.90;;;;;;5012872;28;20223;-71
2022/11/17 00:03:04;;;;;;;2.95;2.63;;;6.60;99.90;;;;;;5013808;28;20208;-70
2022/11/17 00:05:30;;;;;;;3.38;3.08;;;6.70;99.90;;;;;;5013728;28;20218;-70
2022/11/17 00:07:57;;;;;;;3.95;3.08;;;6.70;99.90;;;;;;5013337;28;20234;-71
2022/11/17 00:10:24;;;;;;;4.55;3.30;;;6.70;99.90;;;;;;5012757;28;20230;-70
2022/11/17 00:15:36;;;;;;;5.68;3.25;;;6.70;99.90;;;;;;5013458;28;20205;-71
2022/11/17 00:26:12;;;;;;;2.85;2.33;;;6.70;99.90;;;;;;5013038;28;20203;-70
2022/11/17 00:28:40;;;;;;;4.07;2.70;;;6.70;99.90;;;;;;5012791;28;20223;-70
2022/11/17 00:34:06;;;;;;;4.65;3.05;;;6.80;99.90;;;;;;5012957;28;20277;-70
2022/11/17 00:36:36;;;;;;;7.90;3.40;;;6.80;99.90;;;;;;5013124;28;20570;-70
2022/11/17 00:39:03;;;;;;;3.90;3.50;;;6.80;99.90;;;;;;5013168;28;20257;-70
2022/11/17 00:41:30;;;;;;;5.22;2.97;;;6.90;99.90;;;;;;5012535;28;20233;-70
2022/11/17 00:43:58;;;;;;;4.47;3.63;;;6.90;99.90;;;;;;5012702;28;20211;-70
2022/11/17 00:46:25;;;;;;;5.35;3.20;;;6.90;99.90;;;;;;5012778;28;20674;-70
2022/11/17 00:48:52;;;;;;;4.15;3.47;;;6.90;99.90;;;;;;5012939;28;20231;-71
2022/11/17 00:51:19;;;;;;;5.38;3.75;;;7.00;99.90;;;;;;5012026;28;20603;-71
2022/11/17 00:53:46;;;;;;;4.78;3.42;;;7.00;99.90;;;;;;5012630;28;20203;-71
2022/11/17 00:56:13;;;;;;;4.55;4.15;;;7.00;99.90;;;;;;5012602;28;20202;-71
2022/11/17 00:58:40;;;;;;;4.55;3.90;;;7.00;99.90;;;;;;5012449;28;20209;-70
2022/11/17 01:01:08;;;;;;;5.47;3.80;;;7.00;99.90;;;;;;5011679;28;20223;-71
2022/11/17 01:03:35;;;;;;;5.25;4.20;;;7.00;99.90;;;;;;5012608;28;20318;-71
2022/11/17 01:06:07;;;;;;;5.78;3.70;;;7.00;99.90;;;;;;5012684;28;20206;-70
2022/11/17 01:08:34;;;;;;;5.90;3.90;;;7.00;99.90;;;;;;5012144;28;20223;-70
2022/11/17 01:11:08;;;;;;;5.60;4.03;;;7.00;99.90;;;;;;5011963;28;20219;-70
2022/11/17 01:13:35;;;;;;;5.40;4.20;;;7.00;99.90;;;;;;5012179;28;20209;-70
2022/11/17 01:16:04;;;;;;;6.13;4.60;;;7.00;99.90;;;;;;5012832;28;20204;-71
2022/11/17 01:18:32;;;;;;;5.25;3.90;;;7.00;99.90;;;;;;5012033;28;20207;-71
2022/11/17 01:21:04;;;;;;;7.70;4.40;;;7.00;99.90;;;;;;5011027;28;20736;-71
2022/11/17 01:23:32;;;;;;;5.63;3.97;;;6.90;99.90;;;;;;5012040;28;20210;-70
2022/11/17 01:26:02;;;;;;;3.90;3.58;;;6.90;99.90;;;;;;5012181;28;20296;-71
2022/11/17 01:28:29;;;;;;;5.55;4.22;;;6.90;99.90;;;;;;5012361;28;20215;-70
2022/11/17 01:30:59;;;;;;;4.70;3.95;;;6.90;99.90;;;;;;5011274;28;20297;-70
2022/11/17 01:33:26;;;;;;;4.90;3.70;;;6.90;99.90;;;;;;5012207;28;20212;-70
2022/11/17 01:35:54;;;;;;;4.95;3.60;;;6.90;99.90;;;;;;5011657;28;20298;-71
2022/11/17 01:38:21;;;;;;;5.15;4.55;;;6.80;99.90;;;;;;5012139;28;20195;-70
2022/11/17 01:40:48;;;;;;;5.05;3.97;;;6.80;99.90;;;;;;5010918;28;20230;-70
2022/11/17 01:43:15;;;;;;;5.63;4.20;;;6.80;99.90;;;;;;5011984;28;20207;-70
2022/11/17 01:45:41;;;;;;;7.75;4.78;;;6.80;99.90;;;;;;5011616;28;20210;-70
2022/11/17 01:48:12;;;;;;;6.60;4.50;;;6.80;99.90;;;;;;5012195;28;20253;-71
2022/11/17 01:50:44;;;;;;;4.95;4.22;;;6.80;99.90;;;;;;5010724;28;20227;-68
2022/11/17 01:53:16;;;;;;;6.18;4.05;;;6.80;99.90;;;;;;5011826;28;20251;-69
2022/11/17 01:55:46;;;;;;;8.50;4.13;;;6.90;99.90;;;;;;5011547;28;20198;-71
2022/11/17 01:58:18;;;;;;;5.68;4.10;;;6.90;99.90;;;;;;5011439;28;20690;-70
2022/11/17 02:00:46;;;;;;;4.00;3.60;;;6.90;99.90;;;;;;5010750;28;20236;-70
2022/11/17 02:03:13;;;;;;;6.30;3.97;;;6.90;99.90;;;;;;5011113;28;20203;-70
2022/11/17 02:05:48;;;;;;;6.55;4.45;;;6.90;99.90;;;;;;5011298;28;20234;-70
2022/11/17 02:08:42;;;;;;;5.97;4.50;;;6.90;99.90;;;;;;5011243;28;20598;-70
2022/11/17 02:11:14;;;;;;;5.13;3.85;;;7.00;99.90;;;;;;5010648;28;20718;-70
2022/11/17 02:13:41;;;;;;;4.22;3.55;;;7.00;99.90;;;;;;5011106;28;20218;-70
2022/11/17 02:16:11;;;;;;;6.07;4.55;;;6.90;99.90;;;;;;5011590;28;20225;-70
2022/11/17 02:18:38;;;;;;;5.05;4.03;;;6.90;99.90;;;;;;5011056;28;20272;-70
2022/11/17 02:21:36;;;;;;;4.78;4.00;;;6.90;99.90;;;;;;5010601;28;20219;-71
2022/11/17 02:24:41;;;;;;;7.22;4.28;;;6.90;99.90;;;;;;4985734;28;20606;-70
2022/11/17 02:27:53;;;;;;;4.95;3.80;;;6.80;99.90;;;;;;5011392;28;20211;-70
2022/11/17 02:30:22;;;;;;;5.63;4.35;;;6.70;99.90;;;;;;5010320;28;20226;-70
2022/11/17 02:32:59;;;;;;;5.45;4.03;;;6.70;99.90;;;;;;5009946;28;20210;-70
2022/11/17 02:35:34;;;;;;;8.27;4.28;;;6.60;99.90;;;;;;5010911;28;20214;-68
2022/11/17 02:38:09;;;;;;;5.43;4.45;;;6.60;99.90;;;;;;5010950;28;20573;-70
2022/11/17 02:40:43;;;;;;;5.25;3.60;;;6.50;99.90;;;;;;5009942;28;20227;-70
2022/11/17 02:46:05;;;;;;;4.65;4.20;;;6.40;99.90;;;;;;5010809;28;20222;-71
2022/11/17 02:48:35;;;;;;;4.70;4.30;;;6.30;99.90;;;;;;5010772;28;20227;-70
2022/11/17 02:51:03;;;;;;;4.50;4.10;;;6.20;99.90;;;;;;5010176;28;20721;-70
2022/11/17 02:53:31;;;;;;;3.83;3.42;;;6.20;99.90;;;;;;5010650;28;20207;-70
2022/11/17 02:56:01;;;;;;;5.97;4.15;;;6.20;99.90;;;;;;5010789;28;20207;-70
2022/11/17 02:58:29;;;;;;;5.25;3.58;;;6.20;99.90;;;;;;5010576;28;20670;-70
2022/11/17 03:01:16;;;;;;;6.60;4.28;;;6.20;99.90;;;;;;5010028;28;20234;-69
2022/11/17 03:03:54;;;;;;;4.22;3.85;;;6.20;99.90;;;;;;5010506;28;20209;-70
2022/11/17 03:06:31;;;;;;;5.65;4.43;;;6.20;99.90;;;;;;5010980;28;20209;-70
2022/11/17 03:09:08;;;;;;;6.40;4.20;;;6.20;99.90;;;;;;5010403;28;20231;-70
2022/11/17 03:11:43;;;;;;;5.88;4.05;;;6.30;99.90;;;;;;5009709;28;20222;-70
2022/11/17 03:14:19;;;;;;;5.80;3.67;;;6.40;99.90;;;;;;5010609;28;20202;-71
2022/11/17 03:16:54;;;;;;;4.75;3.45;;;6.40;99.90;;;;;;5010425;28;20695;-71
2022/11/17 03:19:27;;;;;;;6.65;4.00;;;6.50;99.90;;;;;;5010476;28;20203;-70
2022/11/17 03:21:59;;;;;;;4.00;3.60;;;6.60;99.90;;;;;;5009972;28;20223;-70
2022/11/17 03:24:30;;;;;;;5.50;3.90;;;6.60;99.90;;;;;;5010676;28;20226;-71
2022/11/17 03:27:00;;;;;;;5.78;3.55;;;6.60;99.90;;;;;;5010341;28;20215;-70
2022/11/17 03:29:31;;;;;;;4.65;3.60;;;6.60;99.90;;;;;;5010643;28;20626;-69
2022/11/17 03:32:02;;;;;;;3.90;2.95;;;6.60;99.90;;;;;;5009667;28;20223;-70
2022/11/17 03:34:35;;;;;;;3.58;2.83;;;6.60;99.90;;;;;;5010753;28;20214;-71
2022/11/17 03:37:06;;;;;;;4.00;2.50;;;6.60;99.90;;;;;;5010554;28;20199;-70
2022/11/17 03:39:34;;;;;;;2.50;2.30;;;6.70;99.90;;;;;;5010472;28;20210;-70
2022/11/17 03:44:34;;;;;;;3.00;2.20;;;7.00;99.90;;;;;;4979594;28;20292;-72
2022/11/17 03:47:05;;;;;;;2.33;2.08;;;7.10;99.90;;;;;;4975019;28;20230;-72
2022/11/17 03:49:38;;;;;;;5.25;2.70;;;7.20;99.90;;;;;;4975291;28;20225;-72
2022/11/17 03:52:05;;;;;;;2.67;2.30;;;7.30;99.90;;;;;;4955358;29;20205;-72
2022/11/17 03:54:33;;;;;;;1.75;1.65;;;7.40;99.90;;;;;;4955821;29;20205;-72
2022/11/17 03:57:06;;;;;;;3.75;2.50;;;7.50;99.90;;;;;;4956157;28;20212;-72
2022/11/17 03:59:42;;;;;;;2.38;2.08;;;7.50;99.90;;;;;;4955377;29;20205;-72
2022/11/17 04:02:13;;;;;;;2.53;2.10;;;7.60;99.90;;;;;;4955136;29;20210;-72
2022/11/17 04:07:25;;;;;;;2.40;2.20;;;7.70;99.90;;;;;;4955832;29;20595;-72
2022/11/17 04:09:51;;;;;;;3.47;2.28;;;7.70;99.90;;;;;;4954584;28;20225;-72
2022/11/17 04:17:48;;;;;;;3.05;2.10;;;7.80;99.90;;;;;;4955587;29;20687;-72
2022/11/17 04:20:15;;;;;;;4.13;2.65;;;7.80;99.90;;;;;;4956039;28;20701;-72
2022/11/17 04:22:42;;;;;;;2.65;2.45;;;7.80;99.90;;;;;;4955863;28;20205;-72
2022/11/17 04:28:35;;;;;;;2.78;1.90;;;7.90;99.90;;;;;;4955695;29;20563;-72
2022/11/17 04:30:41;;;;;;;5.28;2.17;;;7.90;99.90;;;;;;4953804;28;20731;-72
2022/11/17 04:33:08;;;;;;;1.90;1.80;;;7.90;99.90;;;;;;4954891;28;20207;-72
2022/11/17 04:35:35;;;;;;;2.45;2.25;;;8.00;99.90;;;;;;4957289;28;20214;-72
2022/11/17 04:38:01;;;;;;;3.17;2.30;;;8.00;99.90;;;;;;4963183;28;20209;-72
2022/11/17 04:40:28;;;;;;;2.95;2.03;;;8.00;99.90;;;;;;4964513;28;20214;-72
2022/11/17 04:42:54;;;;;;;2.00;1.90;;;8.00;99.90;;;;;;4963239;28;20664;-71
2022/11/17 04:45:20;;;;;;;2.13;1.93;;;8.00;99.90;;;;;;4962544;28;20199;-71
2022/11/17 04:47:49;;;;;;;2.20;2.00;;;8.00;99.90;;;;;;4963885;28;20685;-72
2022/11/17 04:50:16;;;;;;;2.15;1.95;;;8.00;99.90;;;;;;4962779;28;20224;-69
2022/11/17 04:52:43;;;;;;;3.10;2.15;;;8.00;99.90;;;;;;4959247;28;20695;-71
2022/11/17 04:55:10;;;;;;;2.55;2.35;;;8.00;99.90;;;;;;4951609;28;20207;-71
2022/11/17 04:57:36;;;;;;;4.53;2.75;;;8.00;99.90;;;;;;4951920;29;20214;-71
2022/11/17 05:00:04;;;;;;;2.47;2.20;;;8.00;99.90;;;;;;4953235;28;20223;-71
2022/11/17 05:02:31;;;;;;;2.90;2.40;;;8.00;99.90;;;;;;4954127;29;20217;-71
2022/11/17 05:04:59;;;;;;;2.38;2.17;;;8.00;99.90;;;;;;4953872;29;20235;-71
2022/11/17 05:07:26;;;;;;;2.70;2.50;;;8.10;99.90;;;;;;4954416;29;20310;-71
2022/11/17 05:09:53;;;;;;;3.42;2.38;;;8.00;99.90;;;;;;4953672;28;20227;-71
2022/11/17 05:15:05;;;;;;;2.30;2.10;;;8.00;99.90;;;;;;4954434;29;20208;-71
2022/11/17 05:17:31;;;;;;;5.75;2.30;;;8.00;99.90;;;;;;4954720;29;20207;-71
2022/11/17 05:20:00;;;;;;;2.73;2.07;;;7.90;99.90;;;;;;4954554;28;20240;-71
2022/11/17 05:25:11;;;;;;;2.63;2.42;;;7.90;99.90;;;;;;4954783;29;20450;-69
2022/11/17 05:27:37;;;;;;;2.80;2.10;;;7.90;99.90;;;;;;4953933;29;20209;-69
2022/11/17 05:32:32;;;;;;;3.33;2.78;;;8.00;99.90;;;;;;4990110;28;20730;-71
2022/11/17 05:35:00;;;;;;;2.55;2.10;;;8.00;99.90;;;;;;4992394;28;20573;-71
2022/11/17 05:37:27;;;;;;;4.85;2.35;;;8.10;99.90;;;;;;4992113;28;20207;-71
2022/11/17 05:39:54;;;;;;;3.25;2.90;;;8.10;99.90;;;;;;4991933;28;21879;-71
2022/11/17 05:42:20;;;;;;;2.70;2.20;;;8.10;99.90;;;;;;4991657;28;20206;-70
2022/11/17 05:44:47;;;;;;;3.08;2.65;;;8.10;99.90;;;;;;4991683;28;20214;-71
2022/11/17 05:47:14;;;;;;;3.10;2.30;;;8.10;99.90;;;;;;4992044;28;20214;-70
2022/11/17 05:49:41;;;;;;;2.75;2.25;;;8.10;99.90;;;;;;4991337;28;20226;-70
2022/11/17 05:52:09;;;;;;;4.40;2.88;;;8.10;99.90;;;;;;4991343;28;20204;-71
2022/11/17 05:54:35;;;;;;;3.15;2.47;;;8.10;99.90;;;;;;4991592;28;20205;-71
2022/11/17 05:57:07;;;;;;;2.22;1.95;;;8.10;99.90;;;;;;4991831;28;20209;-70
2022/11/17 05:59:37;;;;;;;2.40;2.20;;;8.00;99.90;;;;;;4991289;28;20207;-70
2022/11/17 06:02:09;;;;;;;3.28;2.38;;;8.00;99.90;;;;;;4991374;28;20232;-71
2022/11/17 06:04:36;;;;;;;2.60;2.40;;;7.90;99.90;;;;;;4991409;28;20199;-71
2022/11/17 06:07:03;;;;;;;2.42;2.20;;;7.90;99.90;;;;;;4991491;28;20210;-72
2022/11/17 06:09:34;;;;;;;5.13;2.08;;;7.90;99.90;;;;;;4991725;28;20240;-70
2022/11/17 06:12:01;;;;;;;1.90;1.70;;;7.90;99.90;;;;;;4991117;28;20584;-71
2022/11/17 06:14:27;;;;;;;4.30;2.70;;;7.90;99.90;;;;;;4991864;28;20222;-71
2022/11/17 06:17:01;;;;;;;2.30;2.10;;;7.90;99.90;;;;;;4991259;28;20597;-70
2022/11/17 06:19:30;;;;;;;2.60;2.40;;;8.00;99.90;;;;;;4991494;28;20202;-71
2022/11/17 06:21:58;;;;;;;2.95;1.95;;;8.00;99.90;;;;;;4990789;28;20224;-71
2022/11/17 06:24:25;;;;;;;2.35;2.00;;;8.00;99.90;;;;;;4991359;28;20207;-71
2022/11/17 06:26:53;;;;;;;2.00;1.80;;;8.00;99.90;;;;;;4988137;28;20206;-71
2022/11/17 06:29:20;;;;;;;2.80;2.38;;;8.10;99.90;;;;;;4991112;28;20252;-71
2022/11/17 06:31:47;;;;;;;3.67;2.17;;;8.10;99.90;;;;;;4989908;28;20230;-70
2022/11/17 06:34:14;;;;;;;3.00;2.70;;;8.10;99.90;;;;;;4991217;28;20202;-71
2022/11/17 06:36:41;;;;;;;2.33;2.05;;;8.10;99.90;;;;;;4990918;28;20204;-73
2022/11/17 06:39:07;;;;;;;2.97;1.67;;;8.20;99.90;;;;;;4990913;28;20203;-70
2022/11/17 06:41:34;;;;;;;2.42;2.20;;;8.10;99.90;;;;;;4990237;28;20219;-73
2022/11/17 06:44:02;;;;;;;3.50;1.90;;;8.10;99.90;;;;;;4990623;28;20202;-71
2022/11/17 06:46:36;;;;;;;4.03;2.00;;;8.10;99.90;;;;;;4991491;28;20213;-70
2022/11/17 06:49:05;;;;;;;2.35;1.90;;;8.10;99.90;;;;;;4991191;28;20205;-71
2022/11/17 06:51:31;;;;;;;2.15;1.95;;;8.10;99.90;;;;;;4990621;28;20281;-71
2022/11/17 06:53:58;;;;;;;2.05;1.90;;;8.00;99.90;;;;;;4991008;28;20209;-71
2022/11/17 06:56:25;;;;;;;2.15;1.58;;;8.00;99.90;;;;;;4991262;28;20214;-70
2022/11/17 06:58:53;;;;;;;2.38;2.10;;;8.10;99.90;;;;;;4991086;28;20582;-70
2022/11/17 07:01:26;;;;;;;2.33;1.80;;;8.20;99.90;;;;;;4990168;28;20233;-69
2022/11/17 07:03:52;;;;;;;1.67;1.58;;;8.20;99.90;;;;;;4990833;28;20253;-71
2022/11/17 07:06:19;;;;;;;2.60;1.70;;;8.20;99.90;;;;;;4991013;28;20203;-71
2022/11/17 07:08:46;;;;;;;2.85;1.77;;;8.30;99.90;;;;;;4991402;28;20697;-72
2022/11/17 07:11:15;;;;;;;1.55;1.40;;;8.30;99.90;;;;;;4990332;28;20593;-71
2022/11/17 07:13:42;;;;;;;1.38;1.27;;;8.30;99.90;;;;;;4991496;28;20207;-72
2022/11/17 07:16:11;;;;;;;1.80;1.50;;;8.30;99.90;;;;;;4991086;28;20206;-72
2022/11/17 07:18:41;;;;;;;2.67;1.70;;;8.20;99.90;;;;;;4992112;28;20692;-69
2022/11/17 07:21:10;;;;;;;2.80;1.45;;;8.20;99.90;;;;;;4994411;28;20225;-71
2022/11/17 07:23:37;;;;;;;2.28;1.90;;;8.20;99.90;;;;;;4994651;28;20203;-71
2022/11/17 07:26:05;;;;;;;2.17;1.98;;;8.20;99.90;;;;;;4994437;28;20200;-71
2022/11/17 07:28:33;;;;;;;1.52;1.17;;;8.20;99.90;;;;;;4994742;28;20639;-71
2022/11/17 07:31:02;;;;;;;4.20;1.98;;;8.30;99.90;;;;;;4993965;28;20675;-70
2022/11/17 07:33:28;;;;;;;1.83;1.52;;;8.30;99.90;;;;;;4994551;28;20209;-71
2022/11/17 07:36:01;;;;;;;1.88;1.77;;;8.40;99.90;;;;;;4994945;28;20575;-71
2022/11/17 07:38:30;;;;;;;2.20;1.88;;;8.40;99.90;;;;;;4995112;28;20570;-71
2022/11/17 07:40:57;;;;;;;2.22;1.38;;;8.50;99.90;;;;;;4994128;28;20253;-71
2022/11/17 07:43:24;;;;;;;4.45;2.20;;;8.50;99.90;;;;;;4994606;28;20214;-71
2022/11/17 07:45:51;;;;;;;2.05;1.80;;;8.50;99.90;;;;;;4994529;28;20583;-71
2022/11/17 07:48:17;;;;;;;1.63;1.35;;;8.60;99.90;;;;;;4994465;28;20211;-71
2022/11/17 07:50:44;;;;;;;1.77;1.67;;;8.70;99.90;;;;;;4993606;28;20245;-70
2022/11/17 07:53:13;;;;;;;1.58;1.25;;;8.80;99.90;;;;;;4994472;28;20598;-70
2022/11/17 07:55:40;;;;;;;1.45;1.35;;;8.90;99.90;;;;;;4994157;28;20230;-71
2022/11/17 07:58:07;;;;;;;3.88;1.35;;;9.00;99.90;;;;;;4994323;28;20367;-71
2022/11/17 08:00:33;;;;;;;1.90;1.00;;;9.10;99.90;;;;;;4993647;28;20220;-70
2022/11/17 08:03:02;;;;;;;2.53;1.20;;;9.30;99.90;;;;;;4994076;28;20209;-71
2022/11/17 08:05:30;;;;;;;1.48;1.35;;;9.30;99.90;;;;;;4994169;28;20246;-72
2022/11/17 08:07:59;;;;;;;5.72;1.20;;;9.50;99.90;;;;;;4994092;28;20214;-73
2022/11/17 08:10:30;;;;;;;1.90;0.88;;;9.60;99.90;;;;;;4993200;28;20235;-70
2022/11/17 08:12:58;;;;;;;1.48;1.25;;;9.70;99.90;;;;;;4993782;28;20206;-71
2022/11/17 08:15:24;;;;;;;1.58;1.30;;;9.90;99.90;;;;;;4993878;28;20218;-71
2022/11/17 08:17:53;;;;;;;4.63;1.45;;;10.00;99.90;;;;;;4993716;28;20207;-71
2022/11/17 08:20:20;;;;;;;2.10;1.00;;;10.20;99.90;;;;;;4993593;28;20231;-71
2022/11/17 08:22:47;;;;;;;1.70;1.17;;;10.40;99.90;;;;;;4994441;28;20225;-71
2022/11/17 08:25:14;;;;;;;1.00;0.90;;;10.50;99.90;;;;;;4993683;28;20203;-71
2022/11/17 08:27:42;;;;;;;1.85;0.90;;;10.50;99.90;;;;;;4994720;28;20288;-71
2022/11/17 08:30:09;;;;;;;3.75;1.20;;;10.70;99.90;;;;;;4994530;28;20238;-71
2022/11/17 08:32:36;;;;;;;2.30;0.85;;;10.70;99.90;;;;;;4991756;28;20214;-69
2022/11/17 08:35:05;;;;;;;1.10;0.85;;;10.70;99.90;;;;;;4998593;28;20195;-70
2022/11/17 08:37:32;;;;;;;0.95;0.90;;;10.60;99.90;;;;;;4991928;28;20579;-71
2022/11/17 08:39:59;;;;;;;2.28;1.10;;;10.50;99.90;;;;;;5008964;28;20221;-71
2022/11/17 08:42:26;;;;;;;1.48;0.90;;;10.50;99.90;;;;;;5008007;28;20224;-71
2022/11/17 08:44:54;;;;;;;1.83;0.80;;;10.50;99.90;;;;;;4998087;28;20202;-70
2022/11/17 08:47:20;;;;;;;1.10;0.90;;;10.60;99.90;;;;;;4993577;28;20195;-71
2022/11/17 08:49:47;;;;;;;2.92;0.80;;;10.70;99.90;;;;;;4989792;28;20262;-71
2022/11/17 08:52:21;;;;;;;1.45;1.00;;;10.80;99.90;;;;;;4998131;28;20200;-70
2022/11/17 08:54:49;;;;;;;1.13;1.00;;;10.90;99.90;;;;;;4985013;28;20210;-70
2022/11/17 08:57:16;;;;;;;1.30;0.80;;;11.00;99.90;;;;;;4998958;28;20273;-69
2022/11/17 08:59:43;;;;;;;1.50;0.90;;;11.10;99.90;;;;;;5009248;28;20234;-71
2022/11/17 09:02:12;;;;;;;0.90;0.73;;;11.20;99.90;;;;;;4997855;28;20310;-71
2022/11/17 09:04:39;;;;;;;2.40;0.95;;;11.40;99.90;;;;;;4993660;28;20215;-70
2022/11/17 09:07:06;;;;;;;1.65;0.73;;;11.60;99.90;;;;;;5007712;28;20191;-69
2022/11/17 09:09:33;;;;;;;1.20;0.80;;;11.50;99.90;;;;;;5008153;28;20557;-69
2022/11/17 09:12:00;;;;;;;1.20;0.70;;;11.40;99.90;;;;;;5006402;28;20195;-71
2022/11/17 09:14:27;;;;;;;1.50;0.80;;;11.50;99.90;;;;;;5001208;28;20207;-72
2022/11/17 09:16:54;;;;;;;2.15;1.00;;;11.80;99.90;;;;;;5004785;28;20199;-71
2022/11/17 09:19:22;;;;;;;1.35;0.90;;;11.90;99.90;;;;;;5007288;28;20204;-71
2022/11/17 09:21:49;;;;;;;2.45;0.70;;;11.90;99.90;;;;;;5001837;28;20211;-70
2022/11/17 09:24:16;;;;;;;0.90;0.80;;;11.80;99.90;;;;;;4987652;28;20258;-70
2022/11/17 09:26:43;;;;;;;1.20;0.80;;;11.70;99.90;;;;;;4994924;28;20223;-69
2022/11/17 09:29:10;;;;;;;2.28;1.08;;;11.80;99.90;;;;;;5008040;28;20201;-70
2022/11/17 09:31:37;;;;;;;1.20;0.80;;;11.90;99.90;;;;;;4986277;28;20537;-71
2022/11/17 09:34:04;;;;;;;3.45;0.90;;;12.00;99.90;;;;;;4987918;28;20203;-70
2022/11/17 09:36:32;;;;;;;1.63;0.90;;;12.00;99.90;;;;;;5000214;28;20626;-70
2022/11/17 09:38:59;;;;;;;0.90;0.70;;;12.20;99.90;;;;;;4994026;28;20195;-70
2022/11/17 09:41:31;;;;;;;1.00;0.85;;;12.90;99.90;;;;;;5004016;28;20211;-71
2022/11/17 09:44:19;;;;;;;2.20;1.00;;;13.50;99.90;;;;;;4997511;28;20207;-71
2022/11/17 09:46:59;;;;;;;1.75;0.82;;;13.60;99.90;;;;;;4989039;28;20263;-69
2022/11/17 09:49:46;;;;;;;2.00;0.95;;;13.30;99.90;;;;;;4986733;28;20196;-70
2022/11/17 09:52:20;;;;;;;0.90;0.70;;;12.80;99.90;;;;;;4998820;28;20667;-71
2022/11/17 09:54:51;;;;;;;1.85;0.75;;;12.90;99.90;;;;;;4991031;28;20199;-71
2022/11/17 09:57:27;;;;;;;1.65;0.70;;;12.70;99.90;;;;;;5006338;28;20686;-70
2022/11/17 10:00:06;;;;;;;2.05;0.93;;;12.40;99.90;;;;;;4993586;28;20291;-70
2022/11/17 10:02:34;;;;;;;1.20;0.82;;;12.30;99.90;;;;;;4995928;28;20210;-69
2022/11/17 10:05:01;;;;;;;1.95;1.00;;;12.30;99.90;;;;;;5006304;28;20554;-70
2022/11/17 10:07:33;;;;;;;1.20;0.98;;;12.60;99.90;;;;;;4990157;28;20211;-71
2022/11/17 10:10:02;;;;;;;1.27;0.88;;;13.00;99.90;;;;;;4997549;28;20219;-71
2022/11/17 10:12:34;;;;;;;1.45;0.95;;;13.30;99.90;;;;;;5005630;28;20863;-71
2022/11/17 10:15:19;;;;;;;0.90;0.70;;;13.90;99.90;;;;;;4999742;28;20207;-71
2022/11/17 10:17:46;;;;;;;2.80;1.00;;;14.20;99.90;;;;;;4986591;28;20672;-70
2022/11/17 10:20:16;;;;;;;1.70;0.90;;;15.60;99.90;;;;;;5000959;28;20489;-72
2022/11/17 10:22:45;;;;;;;1.30;1.20;;;18.40;99.90;;;;;;5005258;28;20520;-70
2022/11/17 10:25:23;;;;;;;1.37;0.90;;;20.30;99.90;;;;;;5005067;28;20862;-72
2022/11/17 10:27:52;;;;;;;2.33;1.10;;;20.90;99.90;;;;;;4986894;28;20461;-70
2022/11/17 10:30:22;;;;;;;3.40;1.17;;;20.00;99.90;;;;;;5005098;28;20488;-71
2022/11/17 10:32:51;;;;;;;1.83;0.80;;;18.30;99.90;;;;;;4986074;28;20458;-69
2022/11/17 10:35:19;;;;;;;1.00;0.70;;;16.70;99.90;;;;;;4986488;28;20460;-71
2022/11/17 10:37:55;;;;;;;1.20;0.70;;;15.30;99.90;;;;;;4985584;28;20481;-71
2022/11/17 10:40:23;;;;;;;1.23;0.90;;;14.90;99.90;;;;;;4985443;28;20470;-70
2022/11/17 10:43:18;;;;;;;1.00;0.90;;;16.20;99.90;;;;;;5001627;28;20906;-70
2022/11/17 10:45:46;;;;;;;3.97;1.17;;;17.30;99.90;;;;;;4999585;28;20462;-71
2022/11/17 10:48:26;;;;;;;3.57;1.33;;;17.10;99.90;;;;;;4987281;28;20451;-72
2022/11/17 10:50:55;;;;;;;1.70;1.10;;;16.30;99.90;;;;;;5003748;28;20485;-71
2022/11/17 10:53:29;;;;;;;3.20;1.20;;;15.30;99.90;;;;;;4989964;28;20466;-71
2022/11/17 10:56:02;;;;;;;3.10;1.30;;;14.50;99.90;;;;;;5009663;28;20465;-71
2022/11/17 10:58:30;;;;;;;4.63;1.37;;;13.70;99.90;;;;;;4993998;28;20469;-71
2022/11/17 11:00:58;;;;;;;1.93;0.90;;;13.50;99.90;;;;;;4992543;28;20470;-69
2022/11/17 11:03:28;;;;;;;3.13;1.60;;;15.00;99.90;;;;;;4993177;28;20457;-70
2022/11/17 11:06:01;;;;;;;1.67;0.90;;;16.60;99.90;;;;;;4997737;28;20472;-71
2022/11/17 11:08:36;;;;;;;1.50;1.00;;;18.40;99.90;;;;;;5004974;28;20961;-70
2022/11/17 11:11:08;;;;;;;3.60;1.33;;;20.30;99.90;;;;;;5005344;28;20481;-71
2022/11/17 11:13:42;;;;;;;2.37;1.20;;;21.40;99.90;;;;;;5003125;28;20458;-70
2022/11/17 11:16:11;;;;;;;2.30;1.00;;;22.10;99.70;;;;;;5009422;28;20462;-70
2022/11/17 11:18:38;;;;;;;2.03;1.67;;;22.70;98.60;;;;;;5005030;28;20521;-70
2022/11/17 11:21:11;;;;;;;2.40;1.10;;;22.00;98.70;;;;;;4988933;28;20478;-70
2022/11/17 11:23:48;;;;;;;2.90;1.07;;;20.70;99.40;;;;;;5006462;28;20520;-71
2022/11/17 11:26:42;;;;;;;1.77;1.20;;;18.80;99.90;;;;;;5000935;28;20460;-70
2022/11/17 11:29:24;;;;;;;2.03;0.93;;;16.50;99.90;;;;;;5006301;28;20461;-70
2022/11/17 11:32:05;;;;;;;1.70;1.03;;;15.10;99.90;;;;;;4990737;28;21216;-70
2022/11/17 11:34:44;;;;;;;2.23;1.47;;;14.40;99.90;;;;;;4991795;28;20450;-70
2022/11/17 11:37:13;;;;;;;2.20;1.10;;;13.90;99.90;;;;;;4999594;28;20457;-70
2022/11/17 11:39:54;;;;;;;4.30;1.13;;;13.60;99.90;;;;;;5008222;28;20473;-70
2022/11/17 11:42:44;;;;;;;5.95;1.25;;;13.40;99.90;;;;;;4986798;28;20958;-70
2022/11/17 11:45:23;;;;;;;4.87;1.37;;;13.20;99.90;;;;;;4988790;28;20698;-71
2022/11/17 11:48:03;;;;;;;2.60;1.07;;;13.00;99.90;;;;;;4989236;28;20466;-70
2022/11/17 11:50:34;;;;;;;2.50;1.30;;;13.10;99.90;;;;;;4987270;28;20514;-71
2022/11/17 11:53:07;;;;;;;2.72;1.25;;;12.90;99.90;;;;;;4988949;28;20204;-70
2022/11/17 11:55:37;;;;;;;3.80;1.45;;;12.80;99.90;;;;;;4988866;28;20199;-70
2022/11/17 11:58:13;;;;;;;2.50;1.10;;;13.20;99.90;;;;;;4992180;28;20199;-70
2022/11/17 12:00:41;;;;;;;3.00;1.40;;;14.10;99.90;;;;;;4995429;28;20652;-72
2022/11/17 12:03:20;;;;;;;3.63;2.03;;;15.00;99.90;;;;;;5008428;28;20847;-71
2022/11/17 12:05:59;;;;;;;2.07;1.10;;;15.60;99.90;;;;;;5005986;28;20553;-71
2022/11/17 12:08:51;;;;;;;2.03;1.33;;;15.70;99.90;;;;;;4992994;28;20454;-71
2022/11/17 12:14:06;;;;;;;2.30;1.20;;;16.00;99.90;;;;;;5006129;28;21207;-70
2022/11/17 12:16:35;;;;;;;1.00;0.90;;;15.80;99.90;;;;;;4988028;28;20481;-70
2022/11/17 12:19:02;;;;;;;2.43;1.00;;;15.50;99.90;;;;;;5002033;28;20455;-69
2022/11/17 12:21:30;;;;;;;2.10;1.23;;;15.30;99.90;;;;;;5001469;28;20500;-70
2022/11/17 12:24:17;;;;;;;1.80;1.13;;;15.00;99.90;;;;;;4993208;28;20465;-71
2022/11/17 12:26:46;;;;;;;1.17;0.87;;;14.70;99.90;;;;;;5006031;28;20458;-71
2022/11/17 12:29:30;;;;;;;2.00;1.40;;;14.40;99.90;;;;;;5007775;28;20462;-70
2022/11/17 12:31:58;;;;;;;2.57;1.10;;;14.10;99.90;;;;;;4987085;28;21038;-69
2022/11/17 12:34:29;;;;;;;2.40;1.00;;;14.20;99.90;;;;;;4989905;28;20899;-69
2022/11/17 12:37:20;;;;;;;2.07;1.00;;;14.40;99.90;;;;;;4988813;28;20518;-70
2022/11/17 12:39:58;;;;;;;1.63;1.17;;;14.50;99.90;;;;;;4987838;28;20463;-70
2022/11/17 12:42:27;;;;;;;3.20;1.63;;;14.50;99.90;;;;;;4994510;28;20731;-70
2022/11/17 12:44:59;;;;;;;5.47;1.93;;;14.40;99.90;;;;;;5008036;28;20465;-69
2022/11/17 12:47:28;;;;;;;3.33;1.80;;;14.20;99.90;;;;;;4991537;28;20473;-69
2022/11/17 12:50:25;;;;;;;1.50;0.90;;;14.00;99.90;;;;;;4987265;28;20474;-69
2022/11/17 12:53:19;;;;;;;1.20;1.00;;;13.80;99.90;;;;;;4987705;28;20490;-69
2022/11/17 12:56:18;;;;;;;1.92;1.20;;;13.80;99.90;;;;;;4987651;28;20466;-70
2022/11/17 12:59:03;;;;;;;2.40;1.80;;;14.00;99.90;;;;;;4990045;28;20277;-70
2022/11/17 13:01:40;;;;;;;2.53;1.52;;;14.30;99.90;;;;;;4996677;28;20976;-71
2022/11/17 13:04:11;;;;;;;4.93;1.40;;;14.50;99.90;;;;;;5002559;28;20218;-71
2022/11/17 13:06:38;;;;;;;5.93;2.10;;;14.90;99.90;;;;;;4986534;28;21052;-71
2022/11/17 13:09:06;;;;;;;4.20;1.10;;;15.40;99.90;;;;;;4987598;28;20472;-71
2022/11/17 13:11:34;;;;;;;2.50;1.63;;;15.50;99.90;;;;;;4985697;28;20490;-70
2022/11/17 13:14:09;;;;;;;2.00;1.40;;;15.80;99.90;;;;;;4991454;28;20450;-71
2022/11/17 13:16:37;;;;;;;5.40;1.70;;;16.30;99.90;;;;;;5003511;28;20449;-71
2022/11/17 13:19:19;;;;;;;1.87;1.17;;;16.70;99.90;;;;;;4990108;28;20461;-71
2022/11/17 13:21:46;;;;;;;3.23;1.67;;;16.70;99.90;;;;;;4990079;28;20546;-70
2022/11/17 13:24:29;;;;;;;4.67;1.73;;;16.70;99.90;;;;;;5003797;28;20458;-71
2022/11/17 13:26:59;;;;;;;3.07;1.27;;;17.30;99.90;;;;;;4990349;28;20455;-71
2022/11/17 13:29:27;;;;;;;2.17;1.30;;;17.50;99.90;;;;;;4989240;28;20466;-71
2022/11/17 13:32:16;;;;;;;2.17;1.03;;;17.40;99.90;;;;;;4993566;28;20993;-71
2022/11/17 13:34:48;;;;;;;2.83;1.30;;;16.20;99.90;;;;;;4990941;28;21195;-71
2022/11/17 13:37:17;;;;;;;2.73;1.50;;;15.30;99.90;;;;;;4997445;28;21084;-72
2022/11/17 13:39:55;;;;;;;4.20;1.27;;;14.70;99.90;;;;;;4995008;28;20828;-70
2022/11/17 13:42:24;;;;;;;2.70;1.40;;;14.20;99.90;;;;;;4990148;28;20446;-72
2022/11/17 13:44:54;;;;;;;2.87;1.10;;;13.90;99.90;;;;;;4991599;28;20457;-72
2022/11/17 13:47:26;;;;;;;3.93;1.17;;;13.70;99.90;;;;;;4997486;28;20446;-71
2022/11/17 13:49:53;;;;;;;4.30;1.57;;;13.60;99.90;;;;;;4994448;28;20450;-71
2022/11/17 13:52:33;;;;;;;3.23;1.50;;;13.50;99.90;;;;;;4993219;28;21064;-71